sensor_id;sensor_type;location;lat;lon;timestamp;temperature;humidity
72940;DHT22;61094;51.154;13.570;2023-07-29T00:03:44;19.30;99.90
72940;DHT22;61094;51.154;13.570;2023-07-29T00:08:45;19.20;99.90
72940;DHT22;61094;51.154;13.570;2023-07-29T00:13:49;19.20;99.90
72940;DHT22;61094;51.154;13.570;2023-07-29T00:18:51;19.20;99.90
72940;DHT22;61094;51.154;13.570;2023-07-29T00:23:53;19.20;99.90
72940;DHT22;61094;51.154;13.570;2023-07-29T00:28:59;19.20;99.90
72940;DHT22;61094;51.154;13.570;2023-07-29T00:34:02;19.10;99.90
72940;DHT22;61094;51.154;13.570;2023-07-29T00:39:04;19.10;99.90
72940;DHT22;61094;51.154;13.570;2023-07-29T00:44:07;19.10;99.90
72940;DHT22;61094;51.154;13.570;2023-07-29T00:49:09;19.00;99.90
72940;DHT22;61094;51.154;13.570;2023-07-29T00:54:11;18.90;99.90
72940;DHT22;61094;51.154;13.570;2023-07-29T00:59:16;18.90;99.90
72940;DHT22;61094;51.154;13.570;2023-07-29T01:04:18;18.80;99.90
72940;DHT22;61094;51.154;13.570;2023-07-29T01:09:25;18.90;99.90
72940;DHT22;61094;51.154;13.570;2023-07-29T01:14:38;18.80;99.90
72940;DHT22;61094;51.154;13.570;2023-07-29T01:19:56;18.70;99.90
72940;DHT22;61094;51.154;13.570;2023-07-29T01:25:03;18.70;99.90
72940;DHT22;61094;51.154;13.570;2023-07-29T01:30:06;18.60;99.90
72940;DHT22;61094;51.154;13.570;2023-07-29T01:35:15;18.50;99.90
72940;DHT22;61094;51.154;13.570;2023-07-29T01:40:21;18.40;99.90
72940;DHT22;61094;51.154;13.570;2023-07-29T01:45:24;18.40;99.90
72940;DHT22;61094;51.154;13.570;2023-07-29T01:50:26;18.30;99.90
72940;DHT22;61094;51.154;13.570;2023-07-29T01:55:29;18.30;99.90
72940;DHT22;61094;51.154;13.570;2023-07-29T02:00:31;18.20;99.90
72940;DHT22;61094;51.154;13.570;2023-07-29T02:05:32;18.20;99.90
72940;DHT22;61094;51.154;13.570;2023-07-29T02:10:36;18.20;99.90
72940;DHT22;61094;51.154;13.570;2023-07-29T02:15:37;18.20;99.90
72940;DHT22;61094;51.154;13.570;2023-07-29T02:20:39;18.10;99.90
72940;DHT22;61094;51.154;13.570;2023-07-29T02:25:44;18.10;99.90
72940;DHT22;61094;51.154;13.570;2023-07-29T02:30:46;18.00;99.90
72940;DHT22;61094;51.154;13.570;2023-07-29T02:35:50;18.00;99.90
72940;DHT22;61094;51.154;13.570;2023-07-29T02:40:53;18.10;99.90
72940;DHT22;61094;51.154;13.570;2023-07-29T02:45:55;18.20;99.90
72940;DHT22;61094;51.154;13.570;2023-07-29T02:50:56;18.20;99.90
72940;DHT22;61094;51.154;13.570;2023-07-29T02:55:59;18.30;99.90
72940;DHT22;61094;51.154;13.570;2023-07-29T03:01:02;18.30;99.90
72940;DHT22;61094;51.154;13.570;2023-07-29T03:06:04;18.30;99.90
72940;DHT22;61094;51.154;13.570;2023-07-29T03:11:09;18.30;99.90
72940;DHT22;61094;51.154;13.570;2023-07-29T03:16:13;18.30;99.90
72940;DHT22;61094;51.154;13.570;2023-07-29T03:21:17;18.40;99.90
72940;DHT22;61094;51.154;13.570;2023-07-29T03:26:20;18.40;99.90
72940;DHT22;61094;51.154;13.570;2023-07-29T03:31:22;18.30;99.90
72940;DHT22;61094;51.154;13.570;2023-07-29T03:36:23;18.40;99.90
72940;DHT22;61094;51.154;13.570;2023-07-29T03:41:27;18.40;99.90
72940;DHT22;61094;51.154;13.570;2023-07-29T03:46:29;18.40;99.90
72940;DHT22;61094;51.154;13.570;2023-07-29T03:51:31;18.50;99.90
72940;DHT22;61094;51.154;13.570;2023-07-29T03:56:34;18.60;99.90
72940;DHT22;61094;51.154;13.570;2023-07-29T04:01:36;18.70;99.90
72940;DHT22;61094;51.154;13.570;2023-07-29T04:06:38;18.80;99.90
72940;DHT22;61094;51.154;13.570;2023-07-29T04:11:42;18.90;99.90
72940;DHT22;61094;51.154;13.570;2023-07-29T04:16:43;19.00;99.90
72940;DHT22;61094;51.154;13.570;2023-07-29T04:21:45;19.00;99.90
72940;DHT22;61094;51.154;13.570;2023-07-29T04:26:49;19.00;99.90
72940;DHT22;61094;51.154;13.570;2023-07-29T04:31:50;19.00;99.90
72940;DHT22;61094;51.154;13.570;2023-07-29T04:36:52;19.10;99.90
72940;DHT22;61094;51.154;13.570;2023-07-29T04:41:55;19.10;99.90
72940;DHT22;61094;51.154;13.570;2023-07-29T04:46:58;19.20;99.90
72940;DHT22;61094;51.154;13.570;2023-07-29T04:52:00;19.20;99.90
72940;DHT22;61094;51.154;13.570;2023-07-29T04:57:03;19.20;99.90
72940;DHT22;61094;51.154;13.570;2023-07-29T05:02:05;19.20;99.90
72940;DHT22;61094;51.154;13.570;2023-07-29T05:07:07;19.30;99.90
72940;DHT22;61094;51.154;13.570;2023-07-29T05:12:10;19.40;99.90
72940;DHT22;61094;51.154;13.570;2023-07-29T05:17:12;19.50;99.90
72940;DHT22;61094;51.154;13.570;2023-07-29T05:22:14;19.60;99.90
72940;DHT22;61094;51.154;13.570;2023-07-29T05:27:17;19.70;99.90
72940;DHT22;61094;51.154;13.570;2023-07-29T05:32:19;19.70;99.90
72940;DHT22;61094;51.154;13.570;2023-07-29T05:37:22;19.80;99.90
72940;DHT22;61094;51.154;13.570;2023-07-29T05:42:26;19.90;99.90
72940;DHT22;61094;51.154;13.570;2023-07-29T05:47:27;20.00;99.90
72940;DHT22;61094;51.154;13.570;2023-07-29T05:52:29;20.20;99.90
72940;DHT22;61094;51.154;13.570;2023-07-29T05:57:32;20.40;99.90
72940;DHT22;61094;51.154;13.570;2023-07-29T06:02:34;20.50;99.90
72940;DHT22;61094;51.154;13.570;2023-07-29T06:07:36;20.60;99.90
72940;DHT22;61094;51.154;13.570;2023-07-29T06:12:39;20.70;99.90
72940;DHT22;61094;51.154;13.570;2023-07-29T06:17:41;20.90;99.90
72940;DHT22;61094;51.154;13.570;2023-07-29T06:22:43;21.10;99.90
72940;DHT22;61094;51.154;13.570;2023-07-29T06:27:46;21.30;99.90
72940;DHT22;61094;51.154;13.570;2023-07-29T06:32:48;21.40;99.90
72940;DHT22;61094;51.154;13.570;2023-07-29T06:37:50;21.50;99.90
72940;DHT22;61094;51.154;13.570;2023-07-29T06:42:53;21.60;99.90
72940;DHT22;61094;51.154;13.570;2023-07-29T06:47:54;21.60;99.90
72940;DHT22;61094;51.154;13.570;2023-07-29T06:52:56;21.50;99.90
72940;DHT22;61094;51.154;13.570;2023-07-29T06:57:59;21.50;99.90
72940;DHT22;61094;51.154;13.570;2023-07-29T07:03:01;21.60;99.90
72940;DHT22;61094;51.154;13.570;2023-07-29T07:08:03;21.70;99.90
72940;DHT22;61094;51.154;13.570;2023-07-29T07:13:06;21.90;99.90
72940;DHT22;61094;51.154;13.570;2023-07-29T07:18:08;22.00;99.90
72940;DHT22;61094;51.154;13.570;2023-07-29T07:23:10;22.00;99.20
72940;DHT22;61094;51.154;13.570;2023-07-29T07:28:15;22.10;98.10
72940;DHT22;61094;51.154;13.570;2023-07-29T07:33:16;22.20;97.30
72940;DHT22;61094;51.154;13.570;2023-07-29T07:38:18;22.30;96.60
72940;DHT22;61094;51.154;13.570;2023-07-29T07:43:22;22.60;96.30
72940;DHT22;61094;51.154;13.570;2023-07-29T07:48:24;23.00;94.00
72940;DHT22;61094;51.154;13.570;2023-07-29T07:53:26;23.20;92.60
72940;DHT22;61094;51.154;13.570;2023-07-29T07:58:29;23.30;92.50
72940;DHT22;61094;51.154;13.570;2023-07-29T08:03:30;23.60;91.20
72940;DHT22;61094;51.154;13.570;2023-07-29T08:08:32;24.00;82.70
72940;DHT22;61094;51.154;13.570;2023-07-29T08:13:35;24.20;85.30
72940;DHT22;61094;51.154;13.570;2023-07-29T08:18:37;24.80;75.80
72940;DHT22;61094;51.154;13.570;2023-07-29T08:23:38;25.50;59.60
72940;DHT22;61094;51.154;13.570;2023-07-29T08:28:42;25.60;57.40
72940;DHT22;61094;51.154;13.570;2023-07-29T08:33:43;25.20;59.50
72940;DHT22;61094;51.154;13.570;2023-07-29T08:38:45;24.80;65.10
72940;DHT22;61094;51.154;13.570;2023-07-29T08:43:52;24.60;66.50
72940;DHT22;61094;51.154;13.570;2023-07-29T08:48:55;24.40;66.30
72940;DHT22;61094;51.154;13.570;2023-07-29T08:53:58;24.20;74.80
72940;DHT22;61094;51.154;13.570;2023-07-29T08:59:02;24.10;79.60
72940;DHT22;61094;51.154;13.570;2023-07-29T09:04:05;24.20;80.80
72940;DHT22;61094;51.154;13.570;2023-07-29T09:09:08;24.70;68.80
72940;DHT22;61094;51.154;13.570;2023-07-29T09:14:12;24.90;68.70
72940;DHT22;61094;51.154;13.570;2023-07-29T09:19:14;25.00;68.20
72940;DHT22;61094;51.154;13.570;2023-07-29T09:24:16;25.00;69.20
72940;DHT22;61094;51.154;13.570;2023-07-29T09:29:23;24.90;72.80
72940;DHT22;61094;51.154;13.570;2023-07-29T09:34:25;25.00;68.30
72940;DHT22;61094;51.154;13.570;2023-07-29T09:39:28;25.20;61.40
72940;DHT22;61094;51.154;13.570;2023-07-29T09:44:33;25.30;63.90
72940;DHT22;61094;51.154;13.570;2023-07-29T09:49:37;25.30;61.30
72940;DHT22;61094;51.154;13.570;2023-07-29T09:54:39;25.50;58.70
72940;DHT22;61094;51.154;13.570;2023-07-29T09:59:42;25.60;64.10
72940;DHT22;61094;51.154;13.570;2023-07-29T10:04:45;25.60;55.20
72940;DHT22;61094;51.154;13.570;2023-07-29T10:09:48;25.40;59.40
72940;DHT22;61094;51.154;13.570;2023-07-29T10:14:55;25.10;78.80
72940;DHT22;61094;51.154;13.570;2023-07-29T10:20:00;24.40;91.20
72940;DHT22;61094;51.154;13.570;2023-07-29T10:25:04;24.20;95.10
72940;DHT22;61094;51.154;13.570;2023-07-29T10:30:11;24.70;91.80
72940;DHT22;61094;51.154;13.570;2023-07-29T10:35:14;25.20;75.00
72940;DHT22;61094;51.154;13.570;2023-07-29T10:40:16;25.40;68.30
72940;DHT22;61094;51.154;13.570;2023-07-29T10:45:21;25.50;62.70
72940;DHT22;61094;51.154;13.570;2023-07-29T10:50:23;25.30;69.20
72940;DHT22;61094;51.154;13.570;2023-07-29T10:55:26;25.40;70.50
72940;DHT22;61094;51.154;13.570;2023-07-29T11:00:35;25.50;63.90
72940;DHT22;61094;51.154;13.570;2023-07-29T11:05:48;25.60;66.30
72940;DHT22;61094;51.154;13.570;2023-07-29T11:11:02;25.60;62.30
72940;DHT22;61094;51.154;13.570;2023-07-29T11:16:06;25.40;62.60
72940;DHT22;61094;51.154;13.570;2023-07-29T11:21:07;25.30;65.60
72940;DHT22;61094;51.154;13.570;2023-07-29T11:26:09;24.90;66.20
72940;DHT22;61094;51.154;13.570;2023-07-29T11:31:13;24.70;71.40
72940;DHT22;61094;51.154;13.570;2023-07-29T11:36:19;24.60;72.10
72940;DHT22;61094;51.154;13.570;2023-07-29T11:41:21;24.70;75.40
72940;DHT22;61094;51.154;13.570;2023-07-29T11:46:25;24.70;70.90
72940;DHT22;61094;51.154;13.570;2023-07-29T11:51:26;24.50;73.70
72940;DHT22;61094;51.154;13.570;2023-07-29T11:56:29;24.30;79.40
72940;DHT22;61094;51.154;13.570;2023-07-29T12:01:32;24.10;81.10
72940;DHT22;61094;51.154;13.570;2023-07-29T12:06:34;24.00;84.00
72940;DHT22;61094;51.154;13.570;2023-07-29T12:11:36;24.00;84.80
72940;DHT22;61094;51.154;13.570;2023-07-29T12:16:42;24.10;85.80
72940;DHT22;61094;51.154;13.570;2023-07-29T12:21:44;24.20;85.50
72940;DHT22;61094;51.154;13.570;2023-07-29T12:26:47;24.20;84.90
72940;DHT22;61094;51.154;13.570;2023-07-29T12:31:57;24.20;85.20
72940;DHT22;61094;51.154;13.570;2023-07-29T12:37:03;24.30;85.40
72940;DHT22;61094;51.154;13.570;2023-07-29T12:42:06;24.40;82.60
72940;DHT22;61094;51.154;13.570;2023-07-29T12:47:09;24.70;81.40
72940;DHT22;61094;51.154;13.570;2023-07-29T12:52:12;24.90;81.20
72940;DHT22;61094;51.154;13.570;2023-07-29T12:57:13;25.00;79.00
72940;DHT22;61094;51.154;13.570;2023-07-29T13:02:16;25.00;77.50
72940;DHT22;61094;51.154;13.570;2023-07-29T13:07:18;24.90;78.60
72940;DHT22;61094;51.154;13.570;2023-07-29T13:12:20;24.70;78.90
72940;DHT22;61094;51.154;13.570;2023-07-29T13:17:24;24.80;78.40
72940;DHT22;61094;51.154;13.570;2023-07-29T13:22:26;25.00;78.60
72940;DHT22;61094;51.154;13.570;2023-07-29T13:27:28;25.30;74.10
72940;DHT22;61094;51.154;13.570;2023-07-29T13:32:31;25.20;71.90
72940;DHT22;61094;51.154;13.570;2023-07-29T13:37:33;25.50;68.70
72940;DHT22;61094;51.154;13.570;2023-07-29T13:42:34;26.10;58.20
72940;DHT22;61094;51.154;13.570;2023-07-29T13:47:38;26.00;57.30
72940;DHT22;61094;51.154;13.570;2023-07-29T13:52:39;26.20;53.30
72940;DHT22;61094;51.154;13.570;2023-07-29T13:57:41;26.20;53.80
72940;DHT22;61094;51.154;13.570;2023-07-29T14:02:44;26.40;51.90
72940;DHT22;61094;51.154;13.570;2023-07-29T14:07:46;26.40;51.50
72940;DHT22;61094;51.154;13.570;2023-07-29T14:12:48;26.80;50.80
72940;DHT22;61094;51.154;13.570;2023-07-29T14:17:52;27.20;47.50
72940;DHT22;61094;51.154;13.570;2023-07-29T14:22:54;27.20;43.40
72940;DHT22;61094;51.154;13.570;2023-07-29T14:27:55;27.20;43.50
72940;DHT22;61094;51.154;13.570;2023-07-29T14:32:58;27.30;42.90
72940;DHT22;61094;51.154;13.570;2023-07-29T14:38:00;27.50;42.20
72940;DHT22;61094;51.154;13.570;2023-07-29T14:43:02;27.40;42.60
72940;DHT22;61094;51.154;13.570;2023-07-29T14:48:05;27.60;43.30
72940;DHT22;61094;51.154;13.570;2023-07-29T14:53:07;27.80;41.10
72940;DHT22;61094;51.154;13.570;2023-07-29T14:58:09;27.80;41.60
72940;DHT22;61094;51.154;13.570;2023-07-29T15:03:12;27.70;40.00
72940;DHT22;61094;51.154;13.570;2023-07-29T15:08:14;27.60;40.30
72940;DHT22;61094;51.154;13.570;2023-07-29T15:13:16;27.60;40.00
72940;DHT22;61094;51.154;13.570;2023-07-29T15:18:19;27.60;39.80
72940;DHT22;61094;51.154;13.570;2023-07-29T15:23:20;27.40;40.30
72940;DHT22;61094;51.154;13.570;2023-07-29T15:28:22;27.50;39.70
72940;DHT22;61094;51.154;13.570;2023-07-29T15:33:26;27.40;40.30
72940;DHT22;61094;51.154;13.570;2023-07-29T15:38:27;27.30;40.90
72940;DHT22;61094;51.154;13.570;2023-07-29T15:43:29;27.20;41.00
72940;DHT22;61094;51.154;13.570;2023-07-29T15:48:32;27.20;41.30
72940;DHT22;61094;51.154;13.570;2023-07-29T15:53:34;27.20;40.60
72940;DHT22;61094;51.154;13.570;2023-07-29T15:58:36;27.00;41.60
72940;DHT22;61094;51.154;13.570;2023-07-29T16:03:40;26.70;42.40
72940;DHT22;61094;51.154;13.570;2023-07-29T16:08:42;26.30;43.40
72940;DHT22;61094;51.154;13.570;2023-07-29T16:13:43;26.00;44.10
72940;DHT22;61094;51.154;13.570;2023-07-29T16:18:46;25.80;44.70
72940;DHT22;61094;51.154;13.570;2023-07-29T16:23:49;25.60;45.40
72940;DHT22;61094;51.154;13.570;2023-07-29T16:28:53;24.90;69.10
72940;DHT22;61094;51.154;13.570;2023-07-29T16:33:56;23.40;90.00
72940;DHT22;61094;51.154;13.570;2023-07-29T16:38:58;22.10;99.90
72940;DHT22;61094;51.154;13.570;2023-07-29T16:44:00;19.60;99.90
72940;DHT22;61094;51.154;13.570;2023-07-29T16:49:03;18.50;99.90
72940;DHT22;61094;51.154;13.570;2023-07-29T16:54:05;18.00;99.90
72940;DHT22;61094;51.154;13.570;2023-07-29T16:59:07;17.70;99.90
72940;DHT22;61094;51.154;13.570;2023-07-29T17:04:11;17.60;99.90
72940;DHT22;61094;51.154;13.570;2023-07-29T17:09:13;17.50;99.90
72940;DHT22;61094;51.154;13.570;2023-07-29T17:14:14;17.50;99.90
72940;DHT22;61094;51.154;13.570;2023-07-29T17:19:18;17.40;99.90
72940;DHT22;61094;51.154;13.570;2023-07-29T17:24:19;17.30;99.90
72940;DHT22;61094;51.154;13.570;2023-07-29T17:29:21;17.20;99.90
72940;DHT22;61094;51.154;13.570;2023-07-29T17:34:24;17.20;99.90
72940;DHT22;61094;51.154;13.570;2023-07-29T17:39:26;17.20;99.90
72940;DHT22;61094;51.154;13.570;2023-07-29T17:44:31;17.20;99.90
72940;DHT22;61094;51.154;13.570;2023-07-29T17:49:34;17.20;99.90
72940;DHT22;61094;51.154;13.570;2023-07-29T17:54:35;17.30;99.90
72940;DHT22;61094;51.154;13.570;2023-07-29T17:59:38;17.40;99.90
72940;DHT22;61094;51.154;13.570;2023-07-29T18:04:41;17.60;99.90
72940;DHT22;61094;51.154;13.570;2023-07-29T18:09:44;17.60;99.90
72940;DHT22;61094;51.154;13.570;2023-07-29T18:14:45;17.50;99.90
72940;DHT22;61094;51.154;13.570;2023-07-29T18:19:50;17.50;99.90
72940;DHT22;61094;51.154;13.570;2023-07-29T18:24:53;17.50;99.90
72940;DHT22;61094;51.154;13.570;2023-07-29T18:29:54;17.40;99.90
72940;DHT22;61094;51.154;13.570;2023-07-29T18:34:57;17.40;99.90
72940;DHT22;61094;51.154;13.570;2023-07-29T18:39:59;17.30;99.90
72940;DHT22;61094;51.154;13.570;2023-07-29T18:45:01;17.20;99.90
72940;DHT22;61094;51.154;13.570;2023-07-29T18:50:05;17.20;99.90
72940;DHT22;61094;51.154;13.570;2023-07-29T18:55:07;17.20;99.90
72940;DHT22;61094;51.154;13.570;2023-07-29T19:00:10;17.20;99.90
72940;DHT22;61094;51.154;13.570;2023-07-29T19:05:13;17.20;99.90
72940;DHT22;61094;51.154;13.570;2023-07-29T19:10:15;17.20;99.90
72940;DHT22;61094;51.154;13.570;2023-07-29T19:15:16;17.20;99.90
72940;DHT22;61094;51.154;13.570;2023-07-29T19:20:20;17.20;99.90
72940;DHT22;61094;51.154;13.570;2023-07-29T19:25:21;17.20;99.90
72940;DHT22;61094;51.154;13.570;2023-07-29T19:30:23;17.30;99.90
72940;DHT22;61094;51.154;13.570;2023-07-29T19:35:26;17.30;99.90
72940;DHT22;61094;51.154;13.570;2023-07-29T19:40:28;17.30;99.90
72940;DHT22;61094;51.154;13.570;2023-07-29T19:45:30;17.30;99.90
72940;DHT22;61094;51.154;13.570;2023-07-29T19:50:33;17.40;99.90
72940;DHT22;61094;51.154;13.570;2023-07-29T19:55:35;17.40;99.90
72940;DHT22;61094;51.154;13.570;2023-07-29T20:00:36;17.40;99.90
72940;DHT22;61094;51.154;13.570;2023-07-29T20:05:41;17.30;99.90
72940;DHT22;61094;51.154;13.570;2023-07-29T20:10:44;17.30;99.90
72940;DHT22;61094;51.154;13.570;2023-07-29T20:15:46;17.30;99.90
72940;DHT22;61094;51.154;13.570;2023-07-29T20:20:51;17.30;99.90
72940;DHT22;61094;51.154;13.570;2023-07-29T20:25:53;17.20;99.90
72940;DHT22;61094;51.154;13.570;2023-07-29T20:30:55;17.20;99.90
72940;DHT22;61094;51.154;13.570;2023-07-29T20:35:59;17.20;99.90
72940;DHT22;61094;51.154;13.570;2023-07-29T20:41:01;17.10;99.90
72940;DHT22;61094;51.154;13.570;2023-07-29T20:46:03;17.20;99.90
72940;DHT22;61094;51.154;13.570;2023-07-29T20:51:08;17.10;99.90
72940;DHT22;61094;51.154;13.570;2023-07-29T20:56:11;17.10;99.90
72940;DHT22;61094;51.154;13.570;2023-07-29T21:01:13;17.20;99.90
72940;DHT22;61094;51.154;13.570;2023-07-29T21:06:17;17.20;99.90
72940;DHT22;61094;51.154;13.570;2023-07-29T21:11:20;17.20;99.90
72940;DHT22;61094;51.154;13.570;2023-07-29T21:16:22;17.30;99.90
72940;DHT22;61094;51.154;13.570;2023-07-29T21:21:25;17.30;99.90
72940;DHT22;61094;51.154;13.570;2023-07-29T21:26:27;17.30;99.90
72940;DHT22;61094;51.154;13.570;2023-07-29T21:31:29;17.30;99.90
72940;DHT22;61094;51.154;13.570;2023-07-29T21:36:32;17.30;99.90
72940;DHT22;61094;51.154;13.570;2023-07-29T21:41:34;17.40;99.90
72940;DHT22;61094;51.154;13.570;2023-07-29T21:46:36;17.30;99.90
72940;DHT22;61094;51.154;13.570;2023-07-29T21:51:40;17.30;99.90
72940;DHT22;61094;51.154;13.570;2023-07-29T21:56:41;17.30;99.90
72940;DHT22;61094;51.154;13.570;2023-07-29T22:01:43;17.30;99.90
72940;DHT22;61094;51.154;13.570;2023-07-29T22:06:47;17.30;99.90
72940;DHT22;61094;51.154;13.570;2023-07-29T22:11:48;17.20;99.90
72940;DHT22;61094;51.154;13.570;2023-07-29T22:16:50;17.10;99.90
72940;DHT22;61094;51.154;13.570;2023-07-29T22:21:53;17.00;99.90
72940;DHT22;61094;51.154;13.570;2023-07-29T22:26:55;16.90;99.90
72940;DHT22;61094;51.154;13.570;2023-07-29T22:31:57;16.80;99.90
72940;DHT22;61094;51.154;13.570;2023-07-29T22:37:00;16.70;99.90
72940;DHT22;61094;51.154;13.570;2023-07-29T22:42:02;16.70;99.90
72940;DHT22;61094;51.154;13.570;2023-07-29T22:47:04;16.70;99.90
72940;DHT22;61094;51.154;13.570;2023-07-29T22:52:07;16.60;99.90
72940;DHT22;61094;51.154;13.570;2023-07-29T22:57:09;16.50;99.90
72940;DHT22;61094;51.154;13.570;2023-07-29T23:02:11;16.40;99.90
72940;DHT22;61094;51.154;13.570;2023-07-29T23:07:14;16.30;99.90
72940;DHT22;61094;51.154;13.570;2023-07-29T23:12:16;16.20;99.90
72940;DHT22;61094;51.154;13.570;2023-07-29T23:17:17;16.20;99.90
72940;DHT22;61094;51.154;13.570;2023-07-29T23:22:21;16.10;99.90
72940;DHT22;61094;51.154;13.570;2023-07-29T23:27:22;16.10;99.90
72940;DHT22;61094;51.154;13.570;2023-07-29T23:32:24;16.00;99.90
72940;DHT22;61094;51.154;13.570;2023-07-29T23:37:27;16.00;99.90
72940;DHT22;61094;51.154;13.570;2023-07-29T23:42:29;16.00;99.90
72940;DHT22;61094;51.154;13.570;2023-07-29T23:47:31;16.00;99.90
72940;DHT22;61094;51.154;13.570;2023-07-29T23:52:34;15.90;99.90
72940;DHT22;61094;51.154;13.570;2023-07-29T23:57:36;15.90;99.90
